^^
Meteo Knjazevac Station Historical Data
Daily Summary for January 18, 2022 Units:  Both    English   Metric
Daily Weekly Monthly Yearly Custom
  High: Low: Average:
Temperature: 40.6 °F /  4.8 °C 26.4 °F /  -3.1 °C 34 °F /  1.1 °C
Dew Point: 36.6 °F /  2.6 °C 22.2 °F /  -5.4 °C 27.2 °F /  -2.7 °C
Humidity: 93% 64% 76%
Wind Speed: 12mph /  19.3km/h - 4.4mph /  7.1km/h
Wind Gust: 21mph /  33.8km/h - -
Wind- - WSW
Pressure: 30.50 in /  1032.7 hPa 30.18 in /  1021.9 hPa -
Precipitation: 0.01 in /  0.25 mm    
Historical Graphs
 
 
Tabular Data for January 18, 2022
Time Temperature Dew Point Pressure Wind Wind Speed Wind Gust Humidity Rainfall Rate (Hourly) solar Conditions
00:00 38.5 °F /  3.6 °C 36.6 °F /  2.6 °C 30.18in /  1021.9hPa WSW 3mph /  4.8km/h 7mph /  11.3km/h 93% 0.00in /  0mm 0 W/m2
00:10 38.5 °F /  3.6 °C 36.6 °F /  2.6 °C 30.19in /  1022.2hPa WSW 3mph /  4.8km/h 7mph /  11.3km/h 93% 0.00in /  0mm 0 W/m2
00:20 38.7 °F /  3.7 °C 36.3 °F /  2.4 °C 30.20in /  1022.6hPa WNW 2mph /  3.2km/h 7mph /  11.3km/h 91% 0.00in /  0mm 0 W/m2
00:30 38.7 °F /  3.7 °C 36.3 °F /  2.4 °C 30.19in /  1022.2hPa WNW 2mph /  3.2km/h 5mph /  8km/h 91% 0.00in /  0mm 0 W/m2
00:40 38.7 °F /  3.7 °C 36 °F /  2.2 °C 30.20in /  1022.6hPa West 6mph /  9.7km/h 9mph /  14.5km/h 90% 0.00in /  0mm 0 W/m2
00:50 38.4 °F /  3.6 °C 35.2 °F /  1.8 °C 30.23in /  1023.6hPa North 12mph /  19.3km/h 18mph /  29km/h 88% 0.01in /  0.25mm 0 W/m2
01:00 37.4 °F /  3 °C 33.3 °F /  0.7 °C 30.24in /  1023.9hPa NNW 5mph /  8km/h 20mph /  32.2km/h 85% 0.00in /  0mm 0 W/m2
01:10 37 °F /  2.8 °C 31.1 °F /  -0.5 °C 30.25in /  1024.3hPa North 6mph /  9.7km/h 19mph /  30.6km/h 79% 0.00in /  0mm 0 W/m2
01:20 36.7 °F /  2.6 °C 29.8 °F /  -1.2 °C 30.26in /  1024.6hPa NNW 3mph /  4.8km/h 15mph /  24.1km/h 76% 0.00in /  0mm 0 W/m2
01:30 36.3 °F /  2.4 °C 29.2 °F /  -1.6 °C 30.26in /  1024.6hPa NNW 5mph /  8km/h 13mph /  20.9km/h 75% 0.00in /  0mm 0 W/m2
01:40 36 °F /  2.2 °C 28.8 °F /  -1.8 °C 30.27in /  1024.9hPa NW 3mph /  4.8km/h 7mph /  11.3km/h 75% 0.00in /  0mm 0 W/m2
01:50 35.8 °F /  2.1 °C 28.3 °F /  -2.1 °C 30.27in /  1024.9hPa NW 5mph /  8km/h 11mph /  17.7km/h 74% 0.00in /  0mm 0 W/m2
02:00 35.5 °F /  1.9 °C 28.1 °F /  -2.2 °C 30.27in /  1024.9hPa NW 2mph /  3.2km/h 11mph /  17.7km/h 74% 0.00in /  0mm 0 W/m2
02:10 35.2 °F /  1.8 °C 27.8 °F /  -2.3 °C 30.28in /  1025.3hPa WNW 3mph /  4.8km/h 7mph /  11.3km/h 74% 0.00in /  0mm 0 W/m2
02:20 35.1 °F /  1.7 °C 27.9 °F /  -2.3 °C 30.28in /  1025.3hPa NW 3mph /  4.8km/h 8mph /  12.9km/h 75% 0.00in /  0mm 0 W/m2
02:30 34.9 °F /  1.6 °C 27.8 °F /  -2.3 °C 30.29in /  1025.6hPa WNW 5mph /  8km/h 8mph /  12.9km/h 75% 0.00in /  0mm 0 W/m2
02:40 34.7 °F /  1.5 °C 27.3 °F /  -2.6 °C 30.29in /  1025.6hPa NW 6mph /  9.7km/h 12mph /  19.3km/h 74% 0.00in /  0mm 0 W/m2
02:50 35.1 °F /  1.7 °C 27.3 °F /  -2.6 °C 30.29in /  1025.6hPa NNW 6mph /  9.7km/h 12mph /  19.3km/h 73% 0.00in /  0mm 0 W/m2
03:00 34.9 °F /  1.6 °C 27.1 °F /  -2.7 °C 30.29in /  1025.6hPa NNW 5mph /  8km/h 9mph /  14.5km/h 73% 0.00in /  0mm 0 W/m2
03:10 34.7 °F /  1.5 °C 26.9 °F /  -2.8 °C 30.29in /  1025.6hPa NNW 5mph /  8km/h 10mph /  16.1km/h 73% 0.00in /  0mm 0 W/m2
03:20 34.5 °F /  1.4 °C 26.4 °F /  -3.1 °C 30.29in /  1025.6hPa NW 5mph /  8km/h 9mph /  14.5km/h 72% 0.00in /  0mm 0 W/m2
03:30 34.7 °F /  1.5 °C 26.6 °F /  -3 °C 30.30in /  1026hPa NW 3mph /  4.8km/h 13mph /  20.9km/h 72% 0.00in /  0mm 0 W/m2
03:40 34.3 °F /  1.3 °C 26.8 °F /  -2.9 °C 30.30in /  1026hPa West 1mph /  1.6km/h 9mph /  14.5km/h 74% 0.00in /  0mm 0 W/m2
03:50 33.4 °F /  0.8 °C 26.9 °F /  -2.8 °C 30.31in /  1026.3hPa WSW 2mph /  3.2km/h 3mph /  4.8km/h 77% 0.00in /  0mm 0 W/m2
04:00 32.5 °F /  0.3 °C 26.4 °F /  -3.1 °C 30.31in /  1026.3hPa WNW 2mph /  3.2km/h 5mph /  8km/h 78% 0.00in /  0mm 0 W/m2
04:10 32.1 °F /  0.1 °C 26.3 °F /  -3.2 °C 30.31in /  1026.3hPa West 3mph /  4.8km/h 5mph /  8km/h 79% 0.00in /  0mm 0 W/m2
04:20 31.8 °F /  -0.1 °C 26 °F /  -3.3 °C 30.31in /  1026.3hPa West 2mph /  3.2km/h 6mph /  9.7km/h 79% 0.00in /  0mm 0 W/m2
04:30 31.4 °F /  -0.3 °C 26.2 °F /  -3.2 °C 30.31in /  1026.3hPa Calm   4mph /  6.4km/h 81% 0.00in /  0mm 0 W/m2
04:40 31 °F /  -0.6 °C 25.9 °F /  -3.4 °C 30.32in /  1026.6hPa WSW 1mph /  1.6km/h 3mph /  4.8km/h 81% 0.00in /  0mm 0 W/m2
04:50 30.7 °F /  -0.7 °C 26.2 °F /  -3.2 °C 30.33in /  1027hPa WSW 2mph /  3.2km/h 5mph /  8km/h 83% 0.00in /  0mm 0 W/m2
05:00 30.6 °F /  -0.8 °C 26 °F /  -3.3 °C 30.33in /  1027hPa WNW 2mph /  3.2km/h 4mph /  6.4km/h 83% 0.00in /  0mm 0 W/m2
05:10 30.4 °F /  -0.9 °C 25.8 °F /  -3.4 °C 30.34in /  1027.3hPa Calm   2mph /  3.2km/h 83% 0.00in /  0mm 0 W/m2
05:20 30.1 °F /  -1.1 °C 25.9 °F /  -3.4 °C 30.34in /  1027.3hPa WSW 1mph /  1.6km/h 2mph /  3.2km/h 84% 0.00in /  0mm 0 W/m2
05:30 29.8 °F /  -1.2 °C 25.6 °F /  -3.6 °C 30.34in /  1027.3hPa South 2mph /  3.2km/h 5mph /  8km/h 84% 0.00in /  0mm 0 W/m2
05:40 30 °F /  -1.1 °C 26.1 °F /  -3.3 °C 30.34in /  1027.3hPa SW 1mph /  1.6km/h 6mph /  9.7km/h 85% 0.00in /  0mm 0 W/m2
05:50 30 °F /  -1.1 °C 26.1 °F /  -3.3 °C 30.34in /  1027.3hPa West 3mph /  4.8km/h 5mph /  8km/h 85% 0.00in /  0mm 0 W/m2
06:00 30.2 °F /  -1 °C 26.2 °F /  -3.2 °C 30.35in /  1027.7hPa West 2mph /  3.2km/h 6mph /  9.7km/h 85% 0.00in /  0mm 0 W/m2
06:10 30.4 °F /  -0.9 °C 26.4 °F /  -3.1 °C 30.35in /  1027.7hPa West 1mph /  1.6km/h 6mph /  9.7km/h 85% 0.00in /  0mm 0 W/m2
06:20 30.7 °F /  -0.7 °C 26.8 °F /  -2.9 °C 30.36in /  1028hPa Calm   4mph /  6.4km/h 85% 0.00in /  0mm 0 W/m2
06:30 30.6 °F /  -0.8 °C 26.6 °F /  -3 °C 30.36in /  1028hPa West 5mph /  8km/h 6mph /  9.7km/h 85% 0.00in /  0mm 0 W/m2
06:40 30.4 °F /  -0.9 °C 26.1 °F /  -3.3 °C 30.36in /  1028hPa WSW 6mph /  9.7km/h 9mph /  14.5km/h 84% 0.00in /  0mm 0 W/m2
06:50 30.5 °F /  -0.8 °C 26.2 °F /  -3.2 °C 30.36in /  1028hPa WSW 7mph /  11.3km/h 10mph /  16.1km/h 84% 0.00in /  0mm 0 W/m2
07:00 30.7 °F /  -0.7 °C 26.5 °F /  -3.1 °C 30.36in /  1028hPa WSW 7mph /  11.3km/h 12mph /  19.3km/h 84% 0.00in /  0mm 4 W/m2
07:10 31.1 °F /  -0.5 °C 26.8 °F /  -2.9 °C 30.37in /  1028.3hPa WSW 7mph /  11.3km/h 12mph /  19.3km/h 84% 0.00in /  0mm 9 W/m2
07:20 31.3 °F /  -0.4 °C 27 °F /  -2.8 °C 30.37in /  1028.3hPa WSW 6mph /  9.7km/h 11mph /  17.7km/h 84% 0.00in /  0mm 13 W/m2
07:30 31.4 °F /  -0.3 °C 26.8 °F /  -2.9 °C 30.38in /  1028.7hPa WSW 7mph /  11.3km/h 10mph /  16.1km/h 83% 0.00in /  0mm 28 W/m2
07:40 31.5 °F /  -0.3 °C 26.9 °F /  -2.8 °C 30.38in /  1028.7hPa WSW 5mph /  8km/h 8mph /  12.9km/h 83% 0.00in /  0mm 47 W/m2
07:50 31.7 °F /  -0.2 °C 27.1 °F /  -2.7 °C 30.39in /  1029hPa WSW 6mph /  9.7km/h 10mph /  16.1km/h 83% 0.00in /  0mm 66 W/m2
08:00 32.4 °F /  0.2 °C 27.8 °F /  -2.3 °C 30.39in /  1029hPa WSW 5mph /  8km/h 9mph /  14.5km/h 83% 0.00in /  0mm 56 W/m2
08:10 32.5 °F /  0.3 °C 27.4 °F /  -2.6 °C 30.39in /  1029hPa WSW 7mph /  11.3km/h 13mph /  20.9km/h 81% 0.00in /  0mm 52 W/m2
08:20 32.9 °F /  0.5 °C 27.7 °F /  -2.4 °C 30.39in /  1029hPa WSW 7mph /  11.3km/h 10mph /  16.1km/h 81% 0.00in /  0mm 64 W/m2
08:30 33.4 °F /  0.8 °C 28.2 °F /  -2.1 °C 30.40in /  1029.3hPa WSW 5mph /  8km/h 11mph /  17.7km/h 81% 0.00in /  0mm 147 W/m2
08:40 34.3 °F /  1.3 °C 28.8 °F /  -1.8 °C 30.40in /  1029.3hPa WSW 5mph /  8km/h 13mph /  20.9km/h 80% 0.00in /  0mm 167 W/m2
08:50 34.9 °F /  1.6 °C 28.7 °F /  -1.8 °C 30.40in /  1029.3hPa WSW 6mph /  9.7km/h 13mph /  20.9km/h 78% 0.00in /  0mm 187 W/m2
09:00 35.3 °F /  1.8 °C 29.1 °F /  -1.6 °C 30.40in /  1029.3hPa SW 7mph /  11.3km/h 13mph /  20.9km/h 78% 0.00in /  0mm 207 W/m2
09:10 36 °F /  2.2 °C 29.1 °F /  -1.6 °C 30.40in /  1029.3hPa WSW 6mph /  9.7km/h 13mph /  20.9km/h 76% 0.00in /  0mm 226 W/m2
09:20 36.5 °F /  2.5 °C 29.7 °F /  -1.3 °C 30.41in /  1029.7hPa SW 3mph /  4.8km/h 9mph /  14.5km/h 76% 0.00in /  0mm 220 W/m2
09:30 37 °F /  2.8 °C 29.5 °F /  -1.4 °C 30.40in /  1029.3hPa SW 12mph /  19.3km/h 15mph /  24.1km/h 74% 0.00in /  0mm 261 W/m2
09:40 36.9 °F /  2.7 °C 29.1 °F /  -1.6 °C 30.41in /  1029.7hPa WSW 7mph /  11.3km/h 14mph /  22.5km/h 73% 0.00in /  0mm 277 W/m2
09:50 37 °F /  2.8 °C 29.5 °F /  -1.4 °C 30.41in /  1029.7hPa SW 3mph /  4.8km/h 12mph /  19.3km/h 74% 0.00in /  0mm 293 W/m2
10:00 37.4 °F /  3 °C 29.5 °F /  -1.4 °C 30.42in /  1030hPa SW 7mph /  11.3km/h 10mph /  16.1km/h 73% 0.00in /  0mm 158 W/m2
10:10 36.9 °F /  2.7 °C 29 °F /  -1.7 °C 30.42in /  1030hPa WSW 10mph /  16.1km/h 18mph /  29km/h 73% 0.00in /  0mm 135 W/m2
10:20 36.5 °F /  2.5 °C 28.3 °F /  -2.1 °C 30.42in /  1030hPa WSW 6mph /  9.7km/h 17mph /  27.4km/h 72% 0.00in /  0mm 149 W/m2
10:30 36.3 °F /  2.4 °C 28.2 °F /  -2.1 °C 30.42in /  1030hPa WSW 10mph /  16.1km/h 17mph /  27.4km/h 72% 0.00in /  0mm 127 W/m2
10:40 36.1 °F /  2.3 °C 28 °F /  -2.2 °C 30.41in /  1029.7hPa WSW 12mph /  19.3km/h 18mph /  29km/h 72% 0.00in /  0mm 109 W/m2
10:50 36 °F /  2.2 °C 28.1 °F /  -2.2 °C 30.42in /  1030hPa WSW 6mph /  9.7km/h 16mph /  25.7km/h 73% 0.00in /  0mm 84 W/m2
11:00 36 °F /  2.2 °C 28.1 °F /  -2.2 °C 30.42in /  1030hPa WSW 6mph /  9.7km/h 12mph /  19.3km/h 73% 0.00in /  0mm 103 W/m2
11:10 36.2 °F /  2.3 °C 28.4 °F /  -2 °C 30.42in /  1030hPa WSW 9mph /  14.5km/h 16mph /  25.7km/h 73% 0.00in /  0mm 369 W/m2
11:20 37.2 °F /  2.9 °C 29 °F /  -1.7 °C 30.42in /  1030hPa West 9mph /  14.5km/h 17mph /  27.4km/h 72% 0.00in /  0mm 210 W/m2
11:30 37.9 °F /  3.3 °C 28.9 °F /  -1.7 °C 30.42in /  1030hPa WSW 9mph /  14.5km/h 17mph /  27.4km/h 70% 0.00in /  0mm 375 W/m2
11:40 38.5 °F /  3.6 °C 29.9 °F /  -1.2 °C 30.41in /  1029.7hPa West 8mph /  12.9km/h 16mph /  25.7km/h 71% 0.00in /  0mm 375 W/m2
11:50 39 °F /  3.9 °C 29.3 °F /  -1.5 °C 30.41in /  1029.7hPa WSW 10mph /  16.1km/h 18mph /  29km/h 68% 0.00in /  0mm 374 W/m2
12:00 39.1 °F /  3.9 °C 29.4 °F /  -1.4 °C 30.41in /  1029.7hPa WSW 7mph /  11.3km/h 14mph /  22.5km/h 68% 0.00in /  0mm 372 W/m2
12:10 39.7 °F /  4.3 °C 30 °F /  -1.1 °C 30.41in /  1029.7hPa WSW 9mph /  14.5km/h 14mph /  22.5km/h 68% 0.00in /  0mm 368 W/m2
12:20 40.1 °F /  4.5 °C 30 °F /  -1.1 °C 30.41in /  1029.7hPa WSW 7mph /  11.3km/h 21mph /  33.8km/h 67% 0.00in /  0mm 362 W/m2
12:30 40.6 °F /  4.8 °C 30.2 °F /  -1 °C 30.41in /  1029.7hPa WSW 7mph /  11.3km/h 16mph /  25.7km/h 66% 0.00in /  0mm 356 W/m2
12:40 40.6 °F /  4.8 °C 29.8 °F /  -1.2 °C 30.41in /  1029.7hPa WSW 6mph /  9.7km/h 16mph /  25.7km/h 65% 0.00in /  0mm 157 W/m2
12:50 39.7 °F /  4.3 °C 28.9 °F /  -1.7 °C 30.41in /  1029.7hPa WSW 7mph /  11.3km/h 14mph /  22.5km/h 65% 0.00in /  0mm 126 W/m2
13:00 39 °F /  3.9 °C 29 °F /  -1.7 °C 30.41in /  1029.7hPa WSW 5mph /  8km/h 13mph /  20.9km/h 67% 0.00in /  0mm 146 W/m2
13:10 39 °F /  3.9 °C 29 °F /  -1.7 °C 30.42in /  1030hPa West 8mph /  12.9km/h 16mph /  25.7km/h 67% 0.00in /  0mm 103 W/m2
13:20 39 °F /  3.9 °C 29.3 °F /  -1.5 °C 30.42in /  1030hPa WSW 7mph /  11.3km/h 17mph /  27.4km/h 68% 0.00in /  0mm 302 W/m2
13:30 39.1 °F /  3.9 °C 28.3 °F /  -2.1 °C 30.41in /  1029.7hPa WSW 7mph /  11.3km/h 13mph /  20.9km/h 65% 0.00in /  0mm 150 W/m2
13:40 38.9 °F /  3.8 °C 27.8 °F /  -2.3 °C 30.41in /  1029.7hPa WSW 9mph /  14.5km/h 16mph /  25.7km/h 64% 0.00in /  0mm 107 W/m2
13:50 38.3 °F /  3.5 °C 27.6 °F /  -2.4 °C 30.41in /  1029.7hPa WSW 8mph /  12.9km/h 16mph /  25.7km/h 65% 0.00in /  0mm 79 W/m2
14:00 37.9 °F /  3.3 °C 27.2 °F /  -2.7 °C 30.42in /  1030hPa WSW 8mph /  12.9km/h 17mph /  27.4km/h 65% 0.00in /  0mm 93 W/m2
14:10 37.8 °F /  3.2 °C 27 °F /  -2.8 °C 30.42in /  1030hPa WSW 8mph /  12.9km/h 17mph /  27.4km/h 65% 0.00in /  0mm 89 W/m2
14:20 37.6 °F /  3.1 °C 26.9 °F /  -2.8 °C 30.42in /  1030hPa West 6mph /  9.7km/h 17mph /  27.4km/h 65% 0.00in /  0mm 96 W/m2
14:30 37.4 °F /  3 °C 27.1 °F /  -2.7 °C 30.42in /  1030hPa WSW 9mph /  14.5km/h 16mph /  25.7km/h 66% 0.00in /  0mm 91 W/m2
14:40 37.6 °F /  3.1 °C 27.6 °F /  -2.4 °C 30.42in /  1030hPa WSW 8mph /  12.9km/h 12mph /  19.3km/h 67% 0.00in /  0mm 160 W/m2
14:50 37.8 °F /  3.2 °C 27.5 °F /  -2.5 °C 30.43in /  1030.4hPa WSW 9mph /  14.5km/h 17mph /  27.4km/h 66% 0.00in /  0mm 140 W/m2
15:00 37.3 °F /  2.9 °C 27.3 °F /  -2.6 °C 30.43in /  1030.4hPa WSW 9mph /  14.5km/h 17mph /  27.4km/h 67% 0.00in /  0mm 62 W/m2
15:10 36.9 °F /  2.7 °C 27.3 °F /  -2.6 °C 30.43in /  1030.4hPa WSW 6mph /  9.7km/h 14mph /  22.5km/h 68% 0.00in /  0mm 73 W/m2
15:20 36.9 °F /  2.7 °C 27.3 °F /  -2.6 °C 30.43in /  1030.4hPa West 5mph /  8km/h 17mph /  27.4km/h 68% 0.00in /  0mm 78 W/m2
15:30 36.5 °F /  2.5 °C 26.9 °F /  -2.8 °C 30.44in /  1030.7hPa West 8mph /  12.9km/h 18mph /  29km/h 68% 0.00in /  0mm 39 W/m2
15:40 36.1 °F /  2.3 °C 26.9 °F /  -2.8 °C 30.44in /  1030.7hPa WNW 5mph /  8km/h 14mph /  22.5km/h 69% 0.00in /  0mm 40 W/m2
15:50 36.1 °F /  2.3 °C 26.9 °F /  -2.8 °C 30.44in /  1030.7hPa West 6mph /  9.7km/h 15mph /  24.1km/h 69% 0.00in /  0mm 23 W/m2
16:00 36.3 °F /  2.4 °C 27.1 °F /  -2.7 °C 30.44in /  1030.7hPa WNW 5mph /  8km/h 10mph /  16.1km/h 69% 0.00in /  0mm 8 W/m2
16:10 35.9 °F /  2.2 °C 26.7 °F /  -2.9 °C 30.44in /  1030.7hPa WNW 8mph /  12.9km/h 16mph /  25.7km/h 69% 0.00in /  0mm 13 W/m2
16:20 35.5 °F /  1.9 °C 26.7 °F /  -2.9 °C 30.45in /  1031hPa WNW 2mph /  3.2km/h 10mph /  16.1km/h 70% 0.00in /  0mm 7 W/m2
16:30 35.1 °F /  1.7 °C 26.3 °F /  -3.2 °C 30.45in /  1031hPa WSW 2mph /  3.2km/h 8mph /  12.9km/h 70% 0.00in /  0mm 0 W/m2
16:40 34.9 °F /  1.6 °C 26.8 °F /  -2.9 °C 30.45in /  1031hPa Calm   5mph /  8km/h 72% 0.00in /  0mm 0 W/m2
16:50 34.6 °F /  1.4 °C 26.5 °F /  -3.1 °C 30.45in /  1031hPa West 2mph /  3.2km/h 6mph /  9.7km/h 72% 0.00in /  0mm 0 W/m2
17:00 34.3 °F /  1.3 °C 26.2 °F /  -3.2 °C 30.46in /  1031.4hPa West 2mph /  3.2km/h 7mph /  11.3km/h 72% 0.00in /  0mm 0 W/m2
17:10 34.2 °F /  1.2 °C 26.1 °F /  -3.3 °C 30.46in /  1031.4hPa North 1mph /  1.6km/h 3mph /  4.8km/h 72% 0.00in /  0mm 0 W/m2
17:20 33.8 °F /  1 °C 26.1 °F /  -3.3 °C 30.46in /  1031.4hPa West 2mph /  3.2km/h 4mph /  6.4km/h 73% 0.00in /  0mm 0 W/m2
17:30 33.3 °F /  0.7 °C 25.9 °F /  -3.4 °C 30.46in /  1031.4hPa West 5mph /  8km/h 8mph /  12.9km/h 74% 0.00in /  0mm 0 W/m2
17:40 33.1 °F /  0.6 °C 26 °F /  -3.3 °C 30.46in /  1031.4hPa South 5mph /  8km/h 6mph /  9.7km/h 75% 0.00in /  0mm 0 W/m2
17:50 33.1 °F /  0.6 °C 26 °F /  -3.3 °C 30.47in /  1031.7hPa ESE 5mph /  8km/h 10mph /  16.1km/h 75% 0.00in /  0mm 0 W/m2
18:30 32.7 °F /  0.4 °C 25.7 °F /  -3.5 °C 30.47in /  1031.7hPa SW 2mph /  3.2km/h 4mph /  6.4km/h 75% 0.00in /  0mm 0 W/m2
18:40 32.5 °F /  0.3 °C 25.5 °F /  -3.6 °C 30.47in /  1031.7hPa West 2mph /  3.2km/h 9mph /  14.5km/h 75% 0.00in /  0mm 0 W/m2
18:50 32.4 °F /  0.2 °C 26 °F /  -3.3 °C 30.47in /  1031.7hPa Calm   6mph /  9.7km/h 77% 0.00in /  0mm 0 W/m2
19:00 32.2 °F /  0.1 °C 25.8 °F /  -3.4 °C 30.48in /  1032.1hPa NNW 1mph /  1.6km/h 5mph /  8km/h 77% 0.00in /  0mm 0 W/m2
19:10 32 °F /  0 °C 25.6 °F /  -3.6 °C 30.48in /  1032.1hPa West 1mph /  1.6km/h 9mph /  14.5km/h 77% 0.00in /  0mm 0 W/m2
19:20 31.8 °F /  -0.1 °C 25.7 °F /  -3.5 °C 30.48in /  1032.1hPa WNW 1mph /  1.6km/h 3mph /  4.8km/h 78% 0.00in /  0mm 0 W/m2
19:30 31.5 °F /  -0.3 °C 25.4 °F /  -3.7 °C 30.48in /  1032.1hPa West 2mph /  3.2km/h 5mph /  8km/h 78% 0.00in /  0mm 0 W/m2
19:40 31.1 °F /  -0.5 °C 25.3 °F /  -3.7 °C 30.49in /  1032.4hPa West 3mph /  4.8km/h 6mph /  9.7km/h 79% 0.00in /  0mm 0 W/m2
19:50 30.9 °F /  -0.6 °C 25.2 °F /  -3.8 °C 30.49in /  1032.4hPa West 3mph /  4.8km/h 6mph /  9.7km/h 79% 0.00in /  0mm 0 W/m2
20:00 31.1 °F /  -0.5 °C 25.3 °F /  -3.7 °C 30.48in /  1032.1hPa West 5mph /  8km/h 9mph /  14.5km/h 79% 0.00in /  0mm 0 W/m2
20:10 31.1 °F /  -0.5 °C 25.3 °F /  -3.7 °C 30.48in /  1032.1hPa WNW 2mph /  3.2km/h 6mph /  9.7km/h 79% 0.00in /  0mm 0 W/m2
20:20 30.9 °F /  -0.6 °C 25.2 °F /  -3.8 °C 30.48in /  1032.1hPa NW 1mph /  1.6km/h 3mph /  4.8km/h 79% 0.00in /  0mm 0 W/m2
20:30 30.7 °F /  -0.7 °C 25 °F /  -3.9 °C 30.48in /  1032.1hPa WNW 1mph /  1.6km/h 5mph /  8km/h 79% 0.00in /  0mm 0 W/m2
20:40 30.7 °F /  -0.7 °C 25 °F /  -3.9 °C 30.49in /  1032.4hPa West 1mph /  1.6km/h 5mph /  8km/h 79% 0.00in /  0mm 0 W/m2
20:50 30.7 °F /  -0.7 °C 25 °F /  -3.9 °C 30.49in /  1032.4hPa NNE 1mph /  1.6km/h 3mph /  4.8km/h 79% 0.00in /  0mm 0 W/m2
21:00 30.6 °F /  -0.8 °C 24.8 °F /  -4 °C 30.50in /  1032.7hPa SE 1mph /  1.6km/h 3mph /  4.8km/h 79% 0.00in /  0mm 0 W/m2
21:10 30.1 °F /  -1.1 °C 24.4 °F /  -4.2 °C 30.50in /  1032.7hPa West 2mph /  3.2km/h 4mph /  6.4km/h 79% 0.00in /  0mm 0 W/m2
21:20 30 °F /  -1.1 °C 24.6 °F /  -4.1 °C 30.49in /  1032.4hPa WNW 3mph /  4.8km/h 6mph /  9.7km/h 80% 0.00in /  0mm 0 W/m2
21:30 30.2 °F /  -1 °C 24.5 °F /  -4.2 °C 30.49in /  1032.4hPa NW 1mph /  1.6km/h 6mph /  9.7km/h 79% 0.00in /  0mm 0 W/m2
21:40 30.2 °F /  -1 °C 24.5 °F /  -4.2 °C 30.49in /  1032.4hPa North 1mph /  1.6km/h 6mph /  9.7km/h 79% 0.00in /  0mm 0 W/m2
21:50 29.7 °F /  -1.3 °C 23.9 °F /  -4.5 °C 30.50in /  1032.7hPa North 5mph /  8km/h 8mph /  12.9km/h 79% 0.00in /  0mm 0 W/m2
22:00 29.8 °F /  -1.2 °C 24.1 °F /  -4.4 °C 30.50in /  1032.7hPa NNW 1mph /  1.6km/h 7mph /  11.3km/h 79% 0.00in /  0mm 0 W/m2
22:10 29.3 °F /  -1.5 °C 23.9 °F /  -4.5 °C 30.50in /  1032.7hPa SSE 1mph /  1.6km/h 5mph /  8km/h 80% 0.00in /  0mm 0 W/m2
22:20 28.9 °F /  -1.7 °C 23.5 °F /  -4.7 °C 30.50in /  1032.7hPa NNE 1mph /  1.6km/h 4mph /  6.4km/h 80% 0.00in /  0mm 0 W/m2
22:30 28.8 °F /  -1.8 °C 23.4 °F /  -4.8 °C 30.50in /  1032.7hPa North 1mph /  1.6km/h 4mph /  6.4km/h 80% 0.00in /  0mm 0 W/m2
22:40 28.5 °F /  -1.9 °C 23.1 °F /  -4.9 °C 30.50in /  1032.7hPa North 1mph /  1.6km/h 4mph /  6.4km/h 80% 0.00in /  0mm 0 W/m2
22:50 28.2 °F /  -2.1 °C 23.1 °F /  -4.9 °C 30.50in /  1032.7hPa NE 2mph /  3.2km/h 5mph /  8km/h 81% 0.00in /  0mm 0 W/m2
23:00 27.7 °F /  -2.4 °C 22.6 °F /  -5.2 °C 30.50in /  1032.7hPa North 2mph /  3.2km/h 4mph /  6.4km/h 81% 0.00in /  0mm 0 W/m2
23:10 27.3 °F /  -2.6 °C 22.5 °F /  -5.3 °C 30.50in /  1032.7hPa NW 2mph /  3.2km/h 4mph /  6.4km/h 82% 0.00in /  0mm 0 W/m2
23:20 27.1 °F /  -2.7 °C 22.7 °F /  -5.2 °C 30.50in /  1032.7hPa North 2mph /  3.2km/h 6mph /  9.7km/h 83% 0.00in /  0mm 0 W/m2
23:30 26.8 °F /  -2.9 °C 22.6 °F /  -5.2 °C 30.50in /  1032.7hPa Calm   3mph /  4.8km/h 84% 0.00in /  0mm 0 W/m2
23:40 26.7 °F /  -2.9 °C 22.5 °F /  -5.3 °C 30.50in /  1032.7hPa Calm   5mph /  8km/h 84% 0.00in /  0mm 0 W/m2
23:50 26.4 °F /  -3.1 °C 22.2 °F /  -5.4 °C 30.49in /  1032.4hPa East 1mph /  1.6km/h 2mph /  3.2km/h 84% 0.00in /  0mm 0 W/m2
Knjazevac, Serbia
Compliments of Weather Underground - 2 mb